Time;durP1;ratioP1;P1;durP2;ratioP2;P2;SDS_P1;SDS_P2;PMS_P1;PMS_P2;Temp;Humidity;BMP_temperature;BMP_pressure;BME280_temperature;BME280_humidity;BME280_pressure;Samples;Min_cycle;Max_cycle;Signal;HPM_P1;HPM_P2
2022/05/01 00:00:34;;;;;;;10.17;7.53;;;;;;;;;;5088382;28;20471;-73
2022/05/01 00:03:01;;;;;;;15.87;7.87;;;;;;;;;;5093849;28;20523;-73
2022/05/01 00:05:30;;;;;;;12.20;6.63;;;;;;;;;;5093914;28;20473;-74
2022/05/01 00:07:58;;;;;;;11.50;7.97;;;;;;;;;;5093832;28;20437;-73
2022/05/01 00:10:26;;;;;;;11.17;7.10;;;;;;;;;;5093232;28;20489;-73
2022/05/01 00:12:53;;;;;;;10.77;6.10;;;;;;;;;;5093103;28;20438;-74
2022/05/01 00:15:21;;;;;;;12.00;8.00;;;;;;;;;;5093442;28;20476;-74
2022/05/01 00:17:48;;;;;;;12.43;6.63;;;;;;;;;;5092858;28;20476;-74
2022/05/01 00:20:15;;;;;;;15.70;7.70;;;;;;;;;;5092674;28;20444;-74
2022/05/01 00:22:44;;;;;;;10.37;7.40;;;;;;;;;;5092562;28;20449;-73
2022/05/01 00:25:13;;;;;;;12.80;6.97;;;;;;;;;;5089265;28;20446;-74
2022/05/01 00:27:40;;;;;;;10.40;6.87;;;;;;;;;;5083595;28;21020;-73
2022/05/01 00:30:08;;;;;;;11.10;7.87;;;;;;;;;;5080056;28;20477;-73
2022/05/01 00:38:02;;;;;;;16.00;7.93;;;;;;;;;;5092890;28;20932;-74
2022/05/01 00:40:30;;;;;;;12.00;8.17;;;;;;;;;;5092502;28;20969;-74
2022/05/01 00:43:01;;;;;;;13.20;7.97;;;;;;;;;;5093373;28;20445;-73
2022/05/01 00:45:28;;;;;;;6.77;5.20;;;;;;;;;;5093150;28;20472;-73
2022/05/01 00:47:55;;;;;;;10.70;7.10;;;;;;;;;;5092666;28;20442;-73
2022/05/01 00:50:23;;;;;;;14.67;7.87;;;;;;;;;;5091937;28;20560;-73
2022/05/01 00:52:50;;;;;;;11.37;8.87;;;;;;;;;;5091573;28;21075;-73
2022/05/01 00:55:18;;;;;;;10.40;7.43;;;;;;;;;;5077003;28;20466;-74
2022/05/01 00:57:47;;;;;;;15.47;8.33;;;;;;;;;;5089661;28;20445;-73
2022/05/01 01:00:16;;;;;;;17.03;7.53;;;;;;;;;;5086900;28;20439;-73
2022/05/01 01:02:43;;;;;;;10.90;7.57;;;;;;;;;;5091366;28;20982;-73
2022/05/01 01:05:12;;;;;;;12.43;7.20;;;;;;;;;;5092188;28;20610;-73
2022/05/01 01:07:39;;;;;;;14.27;7.13;;;;;;;;;;5091767;28;20448;-73
2022/05/01 01:10:07;;;;;;;8.83;6.30;;;;;;;;;;5092477;28;20478;-73
2022/05/01 01:15:20;;;;;;;11.90;6.90;;;;;;;;;;5092612;28;20428;-73
2022/05/01 01:17:52;;;;;;;12.57;8.37;;;;;;;;;;5092422;28;20448;-73
2022/05/01 01:20:21;;;;;;;11.10;7.20;;;;;;;;;;5091662;28;21253;-75
2022/05/01 01:22:51;;;;;;;16.23;9.70;;;;;;;;;;5091888;28;20538;-74
2022/05/01 01:25:20;;;;;;;10.83;6.87;;;;;;;;;;5092502;28;20473;-74
2022/05/01 01:27:47;;;;;;;10.80;7.83;;;;;;;;;;5092046;28;20449;-74
2022/05/01 01:33:00;;;;;;;13.43;7.33;;;;;;;;;;5069442;28;20429;-76
2022/05/01 01:35:29;;;;;;;13.30;8.40;;;;;;;;;;5065430;28;20487;-79
2022/05/01 01:37:57;;;;;;;12.43;7.67;;;;;;;;;;5080210;28;20451;-74
2022/05/01 01:40:29;;;;;;;19.03;8.63;;;;;;;;;;5081240;28;20445;-75
2022/05/01 01:42:58;;;;;;;11.30;8.03;;;;;;;;;;5079671;28;20445;-75
2022/05/01 01:45:26;;;;;;;10.80;7.20;;;;;;;;;;5061909;28;20438;-74
2022/05/01 01:47:53;;;;;;;8.90;6.17;;;;;;;;;;5075659;28;20794;-74
2022/05/01 01:50:20;;;;;;;16.07;7.90;;;;;;;;;;5068447;28;20477;-74
2022/05/01 01:52:47;;;;;;;14.43;8.43;;;;;;;;;;5086923;28;20449;-74
2022/05/01 01:55:17;;;;;;;16.90;8.20;;;;;;;;;;5076298;28;20528;-74
2022/05/01 01:57:45;;;;;;;13.53;9.20;;;;;;;;;;5081328;28;20472;-74
2022/05/01 02:00:13;;;;;;;11.60;7.37;;;;;;;;;;5079323;28;20448;-74
2022/05/01 02:02:40;;;;;;;12.90;8.30;;;;;;;;;;5075349;28;20442;-74
2022/05/01 02:05:08;;;;;;;12.80;7.47;;;;;;;;;;5088442;28;20440;-74
2022/05/01 02:07:35;;;;;;;12.20;6.93;;;;;;;;;;5073252;28;20529;-74
2022/05/01 02:10:03;;;;;;;11.77;8.27;;;;;;;;;;5061945;28;20494;-74
2022/05/01 02:12:33;;;;;;;12.30;8.13;;;;;;;;;;5064786;28;20806;-73
2022/05/01 02:15:00;;;;;;;19.90;8.30;;;;;;;;;;5072995;28;20439;-75
2022/05/01 02:17:27;;;;;;;21.70;8.90;;;;;;;;;;5089162;28;20449;-74
2022/05/01 02:19:54;;;;;;;13.67;8.43;;;;;;;;;;5077336;28;20449;-73
2022/05/01 02:22:22;;;;;;;11.50;6.70;;;;;;;;;;5085762;28;20438;-74
2022/05/01 02:24:50;;;;;;;11.67;7.10;;;;;;;;;;5072841;28;21136;-73
2022/05/01 02:27:17;;;;;;;10.97;7.03;;;;;;;;;;5062812;28;20524;-73
2022/05/01 02:29:46;;;;;;;14.20;7.90;;;;;;;;;;5055669;28;20466;-73
2022/05/01 02:32:13;;;;;;;11.17;7.90;;;;;;;;;;5078187;28;20519;-74
2022/05/01 02:34:41;;;;;;;11.67;8.03;;;;;;;;;;5081828;28;20446;-73
2022/05/01 02:37:08;;;;;;;12.23;7.90;;;;;;;;;;5079191;28;20934;-74
2022/05/01 02:39:35;;;;;;;12.20;8.23;;;;;;;;;;5079440;28;20808;-74
2022/05/01 02:42:02;;;;;;;10.80;7.40;;;;;;;;;;5090915;28;20974;-75
2022/05/01 02:44:30;;;;;;;16.63;7.00;;;;;;;;;;5073658;28;20441;-73
2022/05/01 02:46:58;;;;;;;12.70;7.87;;;;;;;;;;5090787;28;20914;-74
2022/05/01 02:49:26;;;;;;;13.97;8.67;;;;;;;;;;5074902;28;20451;-73
2022/05/01 02:51:53;;;;;;;13.80;9.20;;;;;;;;;;5079955;28;20440;-74
2022/05/01 02:54:21;;;;;;;11.77;6.53;;;;;;;;;;5080433;28;20954;-73
2022/05/01 02:56:49;;;;;;;12.07;7.77;;;;;;;;;;5070407;28;20447;-72
2022/05/01 02:59:16;;;;;;;11.67;7.50;;;;;;;;;;5077809;28;20803;-72
2022/05/01 03:01:44;;;;;;;10.40;7.27;;;;;;;;;;5054390;28;20533;-73
2022/05/01 03:04:12;;;;;;;15.10;9.03;;;;;;;;;;5081313;28;20435;-73
2022/05/01 03:06:39;;;;;;;13.00;8.20;;;;;;;;;;5082073;28;20433;-73
2022/05/01 03:09:08;;;;;;;13.67;7.80;;;;;;;;;;5081083;28;20533;-74
2022/05/01 03:11:35;;;;;;;14.67;10.17;;;;;;;;;;5075607;28;20479;-73
2022/05/01 03:14:03;;;;;;;12.83;7.50;;;;;;;;;;5078537;28;20949;-74
2022/05/01 03:16:30;;;;;;;10.10;6.20;;;;;;;;;;5067986;28;20446;-73
2022/05/01 03:24:28;;;;;;;12.33;7.03;;;;;;;;;;5069259;28;20426;-73
2022/05/01 03:26:55;;;;;;;13.47;8.17;;;;;;;;;;5087869;28;20448;-73
2022/05/01 03:29:23;;;;;;;12.17;7.13;;;;;;;;;;5078895;28;20520;-73
2022/05/01 03:31:50;;;;;;;15.33;8.10;;;;;;;;;;5080645;28;20459;-73
2022/05/01 03:34:18;;;;;;;15.20;8.87;;;;;;;;;;5074485;28;20500;-73
2022/05/01 03:36:47;;;;;;;13.60;8.60;;;;;;;;;;5089262;28;20439;-73
2022/05/01 03:39:15;;;;;;;14.00;8.90;;;;;;;;;;5075141;28;20481;-74
2022/05/01 03:41:42;;;;;;;16.63;8.03;;;;;;;;;;5089262;28;20456;-73
2022/05/01 03:44:09;;;;;;;14.93;8.97;;;;;;;;;;5071609;28;20543;-75
2022/05/01 03:46:38;;;;;;;15.63;9.97;;;;;;;;;;5079052;28;20502;-73
2022/05/01 03:49:05;;;;;;;14.50;9.30;;;;;;;;;;5071104;28;20447;-73
2022/05/01 03:51:33;;;;;;;12.50;8.57;;;;;;;;;;5082321;28;20582;-73
2022/05/01 03:54:02;;;;;;;11.17;7.93;;;;;;;;;;5071776;28;20437;-75
2022/05/01 03:56:30;;;;;;;14.80;8.87;;;;;;;;;;5070487;28;20454;-74
2022/05/01 03:58:57;;;;;;;17.03;8.27;;;;;;;;;;5077038;28;20469;-75
2022/05/01 04:01:25;;;;;;;13.90;7.93;;;;;;;;;;5090460;28;20452;-75
2022/05/01 04:03:52;;;;;;;15.70;9.00;;;;;;;;;;5065514;28;20529;-75
2022/05/01 04:06:19;;;;;;;15.23;9.27;;;;;;;;;;5063702;28;20565;-75
2022/05/01 04:08:47;;;;;;;13.40;8.13;;;;;;;;;;5078994;28;20447;-74
2022/05/01 04:11:16;;;;;;;20.37;9.43;;;;;;;;;;5092295;28;20970;-76
2022/05/01 04:13:43;;;;;;;20.10;10.00;;;;;;;;;;5078141;28;20553;-75
2022/05/01 04:16:10;;;;;;;15.47;8.10;;;;;;;;;;5086252;28;20786;-74
2022/05/01 04:18:38;;;;;;;14.67;8.83;;;;;;;;;;5092584;28;20437;-73
2022/05/01 04:21:07;;;;;;;14.93;8.00;;;;;;;;;;5093066;28;20460;-74
2022/05/01 04:23:34;;;;;;;12.23;7.33;;;;;;;;;;5092438;28;20539;-74
2022/05/01 04:26:03;;;;;;;14.33;8.07;;;;;;;;;;5070561;28;20535;-74
2022/05/01 04:28:31;;;;;;;14.30;8.93;;;;;;;;;;5086408;28;20506;-73
2022/05/01 04:30:59;;;;;;;15.07;9.40;;;;;;;;;;5084072;28;20543;-75
2022/05/01 04:33:26;;;;;;;20.67;10.83;;;;;;;;;;5073321;28;20528;-74
2022/05/01 04:35:53;;;;;;;12.07;7.93;;;;;;;;;;5074537;28;20557;-73
2022/05/01 04:38:21;;;;;;;12.70;8.30;;;;;;;;;;5092474;28;20527;-73
2022/05/01 04:40:49;;;;;;;15.07;7.97;;;;;;;;;;5080625;28;20484;-73
2022/05/01 04:43:18;;;;;;;19.60;8.70;;;;;;;;;;5060700;28;20525;-73
2022/05/01 04:45:47;;;;;;;9.47;6.50;;;;;;;;;;5067292;28;20438;-73
2022/05/01 04:48:15;;;;;;;13.33;8.00;;;;;;;;;;5089149;28;20465;-73
2022/05/01 04:50:42;;;;;;;15.83;7.77;;;;;;;;;;5083353;28;20555;-73
2022/05/01 04:53:10;;;;;;;11.60;7.00;;;;;;;;;;5068728;28;20469;-74
2022/05/01 04:55:38;;;;;;;13.43;8.90;;;;;;;;;;5067214;28;20454;-74
2022/05/01 04:58:05;;;;;;;14.97;7.57;;;;;;;;;;5092959;28;20469;-73
2022/05/01 05:00:35;;;;;;;12.60;7.97;;;;;;;;;;5080921;28;20453;-73
2022/05/01 05:03:04;;;;;;;10.87;6.50;;;;;;;;;;5064519;28;20453;-74
2022/05/01 05:05:32;;;;;;;14.13;8.03;;;;;;;;;;5066772;28;20442;-73
2022/05/01 05:09:53;;;;;;;11.73;8.03;;;;;;;;;;5078927;28;20441;-74
2022/05/01 05:10:46;;;;;;;21.57;8.90;;;;;;;;;;5085962;28;20533;-73
2022/05/01 05:13:14;;;;;;;10.40;6.50;;;;;;;;;;5071226;28;20461;-73
2022/05/01 05:15:41;;;;;;;12.00;7.60;;;;;;;;;;5080139;28;20963;-73
2022/05/01 05:18:10;;;;;;;17.20;9.87;;;;;;;;;;5077814;28;20449;-74
2022/05/01 05:20:37;;;;;;;9.67;7.57;;;;;;;;;;5061206;28;20490;-73
2022/05/01 05:23:04;;;;;;;15.60;7.17;;;;;;;;;;5070289;28;20849;-74
2022/05/01 05:25:31;;;;;;;10.87;7.90;;;;;;;;;;5075217;28;20528;-73
2022/05/01 05:27:59;;;;;;;11.43;7.80;;;;;;;;;;5069726;28;20520;-73
2022/05/01 05:30:26;;;;;;;10.50;7.87;;;;;;;;;;5078197;28;20473;-74
2022/05/01 05:32:53;;;;;;;16.20;9.50;;;;;;;;;;5083161;28;20441;-74
2022/05/01 05:35:21;;;;;;;11.73;8.10;;;;;;;;;;5070557;28;20472;-73
2022/05/01 05:37:49;;;;;;;13.40;8.20;;;;;;;;;;5089006;28;20859;-73
2022/05/01 05:40:16;;;;;;;16.43;8.30;;;;;;;;;;5079964;28;20448;-74
2022/05/01 05:42:43;;;;;;;15.70;8.90;;;;;;;;;;5080730;28;20532;-74
2022/05/01 05:45:12;;;;;;;14.07;7.67;;;;;;;;;;5069002;28;20521;-74
2022/05/01 05:47:39;;;;;;;10.80;8.27;;;;;;;;;;5063180;28;20451;-73
2022/05/01 05:50:07;;;;;;;12.23;8.97;;;;;;;;;;5078509;28;20449;-74
2022/05/01 05:52:35;;;;;;;10.43;6.47;;;;;;;;;;5090583;28;20524;-74
2022/05/01 05:55:02;;;;;;;14.87;8.60;;;;;;;;;;5074896;28;20525;-73
2022/05/01 05:57:30;;;;;;;10.53;7.80;;;;;;;;;;5088252;28;20444;-73
2022/05/01 05:59:57;;;;;;;11.60;7.90;;;;;;;;;;5076566;28;20797;-73
2022/05/01 06:02:24;;;;;;;14.93;8.43;;;;;;;;;;5074749;28;20945;-73
2022/05/01 06:04:51;;;;;;;12.47;8.90;;;;;;;;;;5078691;28;20987;-73
2022/05/01 06:07:18;;;;;;;14.70;7.77;;;;;;;;;;5083612;28;20536;-74
2022/05/01 06:09:47;;;;;;;13.57;8.07;;;;;;;;;;5064375;28;20457;-73
2022/05/01 06:12:14;;;;;;;9.93;6.60;;;;;;;;;;5086349;28;20966;-74
2022/05/01 06:14:41;;;;;;;16.77;8.70;;;;;;;;;;5080933;28;20455;-73
2022/05/01 06:17:08;;;;;;;14.00;7.53;;;;;;;;;;5084713;28;20541;-73
2022/05/01 06:19:36;;;;;;;12.10;7.30;;;;;;;;;;5079091;28;20451;-73
2022/05/01 06:22:03;;;;;;;13.80;8.57;;;;;;;;;;5066425;28;20450;-73
2022/05/01 06:24:30;;;;;;;12.07;7.37;;;;;;;;;;5078529;28;20931;-73
2022/05/01 06:26:59;;;;;;;12.90;7.40;;;;;;;;;;5079571;28;20871;-74
2022/05/01 06:29:26;;;;;;;11.53;7.47;;;;;;;;;;5071966;28;20844;-73
2022/05/01 06:31:53;;;;;;;10.87;7.33;;;;;;;;;;5076427;28;20685;-74
2022/05/01 06:34:21;;;;;;;17.13;7.83;;;;;;;;;;5069579;28;20448;-73
2022/05/01 06:36:48;;;;;;;14.43;8.63;;;;;;;;;;5063526;28;20445;-72
2022/05/01 06:39:15;;;;;;;12.40;7.33;;;;;;;;;;5075759;28;20441;-73
2022/05/01 06:41:42;;;;;;;12.40;8.30;;;;;;;;;;5072658;28;20476;-73
2022/05/01 06:44:11;;;;;;;11.23;7.40;;;;;;;;;;5068008;28;20439;-73
2022/05/01 06:46:38;;;;;;;12.23;7.00;;;;;;;;;;5070179;28;20530;-74
2022/05/01 06:49:05;;;;;;;12.70;8.13;;;;;;;;;;5069065;28;21091;-73
2022/05/01 06:51:32;;;;;;;12.53;7.07;;;;;;;;;;5068775;28;20550;-72
2022/05/01 06:53:59;;;;;;;13.10;8.20;;;;;;;;;;5069536;28;20519;-74
2022/05/01 06:56:27;;;;;;;10.50;7.30;;;;;;;;;;5077076;28;20455;-74
2022/05/01 06:58:54;;;;;;;16.87;8.20;;;;;;;;;;5076848;28;20471;-75
2022/05/01 07:01:22;;;;;;;11.80;7.27;;;;;;;;;;5070029;28;20468;-74
2022/05/01 07:03:49;;;;;;;14.20;7.80;;;;;;;;;;5059264;28;21117;-74
2022/05/01 07:06:17;;;;;;;13.17;8.23;;;;;;;;;;5061212;28;20455;-74
2022/05/01 07:08:44;;;;;;;12.37;8.13;;;;;;;;;;5068844;28;20539;-73
2022/05/01 07:11:11;;;;;;;12.63;6.77;;;;;;;;;;5072149;28;20561;-73
2022/05/01 07:13:40;;;;;;;12.50;8.00;;;;;;;;;;5075468;28;20443;-73
2022/05/01 07:16:07;;;;;;;16.87;7.63;;;;;;;;;;5080585;28;20538;-74
2022/05/01 07:18:36;;;;;;;11.70;6.67;;;;;;;;;;5080319;28;20481;-75
2022/05/01 07:21:03;;;;;;;10.37;7.00;;;;;;;;;;5061297;28;20459;-74
2022/05/01 07:23:30;;;;;;;9.50;5.60;;;;;;;;;;5061641;28;20541;-73
2022/05/01 07:25:58;;;;;;;10.90;7.17;;;;;;;;;;5090413;28;20447;-74
2022/05/01 07:28:25;;;;;;;12.97;8.00;;;;;;;;;;5074573;28;21572;-74
2022/05/01 07:30:52;;;;;;;9.30;6.73;;;;;;;;;;5067782;28;20450;-74
2022/05/01 07:33:19;;;;;;;9.70;5.87;;;;;;;;;;5086222;28;20956;-75
2022/05/01 07:35:48;;;;;;;10.80;5.70;;;;;;;;;;5064330;28;20451;-73
2022/05/01 07:38:15;;;;;;;9.67;6.27;;;;;;;;;;5084467;28;20600;-74
2022/05/01 07:40:42;;;;;;;13.30;8.20;;;;;;;;;;5082971;28;20476;-73
2022/05/01 07:43:10;;;;;;;9.97;6.10;;;;;;;;;;5077917;28;20524;-74
2022/05/01 07:45:37;;;;;;;10.97;7.70;;;;;;;;;;5090557;28;20448;-73
2022/05/01 07:48:04;;;;;;;10.07;6.87;;;;;;;;;;5069797;28;20479;-75
2022/05/01 07:50:31;;;;;;;14.53;8.70;;;;;;;;;;5074728;28;20449;-73
2022/05/01 07:53:00;;;;;;;11.00;7.20;;;;;;;;;;5087482;28;20475;-74
2022/05/01 07:55:27;;;;;;;13.23;8.77;;;;;;;;;;5066725;28;20477;-74
2022/05/01 07:57:54;;;;;;;12.00;7.30;;;;;;;;;;5070620;28;20459;-74
2022/05/01 08:00:22;;;;;;;9.20;6.40;;;;;;;;;;5063734;28;20450;-74
2022/05/01 08:05:33;;;;;;;10.37;6.87;;;;;;;;;;5078836;28;20472;-74
2022/05/01 08:08:02;;;;;;;8.30;6.17;;;;;;;;;;5082095;28;20442;-74
2022/05/01 08:10:29;;;;;;;9.83;6.50;;;;;;;;;;5081367;28;20453;-75
2022/05/01 08:12:58;;;;;;;10.53;7.00;;;;;;;;;;5074570;28;20511;-74
2022/05/01 08:15:25;;;;;;;11.60;7.97;;;;;;;;;;5070490;28;20449;-74
2022/05/01 08:17:52;;;;;;;9.90;6.57;;;;;;;;;;5065562;28;20489;-76
2022/05/01 08:23:07;;;;;;;10.53;6.70;;;;;;;;;;5075819;28;20430;-75
2022/05/01 08:25:34;;;;;;;7.80;5.47;;;;;;;;;;5079933;28;20444;-75
2022/05/01 08:28:02;;;;;;;7.20;5.53;;;;;;;;;;5075725;28;20442;-73
2022/05/01 08:30:30;;;;;;;5.50;4.20;;;;;;;;;;5077292;28;20456;-74
2022/05/01 08:32:57;;;;;;;9.00;5.97;;;;;;;;;;5079410;28;20506;-74
2022/05/01 08:35:24;;;;;;;9.57;6.80;;;;;;;;;;5086207;28;20460;-75
2022/05/01 08:37:51;;;;;;;7.37;5.13;;;;;;;;;;5088434;28;21082;-73
2022/05/01 08:40:21;;;;;;;6.90;4.90;;;;;;;;;;5071967;28;20473;-74
2022/05/01 08:42:51;;;;;;;8.70;5.50;;;;;;;;;;5083702;28;20457;-75
2022/05/01 08:45:23;;;;;;;7.60;5.20;;;;;;;;;;5073921;28;20846;-74
2022/05/01 08:47:53;;;;;;;7.13;4.97;;;;;;;;;;5074075;28;21051;-73
2022/05/01 08:50:21;;;;;;;8.53;5.50;;;;;;;;;;5077375;28;20487;-74
2022/05/01 08:52:49;;;;;;;11.67;6.33;;;;;;;;;;5079707;28;21055;-76
2022/05/01 08:55:17;;;;;;;7.47;6.30;;;;;;;;;;5075804;28;20519;-81
2022/05/01 08:57:46;;;;;;;10.23;6.25;;;;;;;;;;5090401;28;20437;-76
2022/05/01 09:00:13;;;;;;;12.60;6.03;;;;;;;;;;5070701;28;20279;-78
2022/05/01 09:02:41;;;;;;;7.80;6.27;;;;;;;;;;5076721;28;20965;-79
2022/05/01 09:05:11;;;;;;;10.23;7.00;;;11.50;1.00;;;;;;5086782;28;20502;-78
2022/05/01 09:07:39;;;;;;;9.93;6.23;;;13.80;1.00;;;;;;5079064;28;20533;-77
2022/05/01 09:10:07;;;;;;;10.93;6.00;;;13.70;1.00;;;;;;5088811;28;20986;-78
2022/05/01 09:12:53;;;;;;;4.40;4.00;;;13.40;1.00;;;;;;5092483;28;20523;-78
2022/05/01 09:15:33;;;;;;;10.03;6.33;;;13.40;1.00;;;;;;5073545;28;20446;-77
2022/05/01 09:18:02;;;;;;;6.90;5.37;;;13.30;1.00;;;;;;5066713;28;20944;-76
2022/05/01 09:20:29;;;;;;;5.20;4.67;;;13.20;1.00;;;;;;5088150;28;20447;-78
2022/05/01 09:22:57;;;;;;;6.73;5.47;;;13.50;1.00;;;;;;5075204;28;20458;-79
2022/05/01 09:25:26;;;;;;;6.23;5.30;;;13.60;1.00;;;;;;5081014;28;20453;-78
2022/05/01 09:27:56;;;;;;;9.37;5.80;;;14.00;1.00;;;;;;5058434;28;20488;-78
2022/05/01 09:30:31;;;;;;;9.77;6.30;;;14.20;1.00;;;;;;5070854;28;20434;-78
2022/05/01 09:33:01;;;;;;;9.70;5.77;;;14.20;1.00;;;;;;5074539;28;20473;-80
2022/05/01 09:35:31;;;;;;;8.80;6.30;;;14.00;1.00;;;;;;5080435;28;20536;-78
2022/05/01 09:38:15;;;;;;;9.37;5.20;;;14.10;1.00;;;;;;5073165;28;20473;-79
2022/05/01 09:40:43;;;;;;;6.70;5.13;;;14.30;1.00;;;;;;5078332;28;20439;-79
2022/05/01 09:43:10;;;;;;;9.07;6.70;;;14.40;1.00;;;;;;5078967;28;20458;-80
2022/05/01 09:45:37;;;;;;;9.50;6.07;;;14.00;1.00;;;;;;5071025;28;20455;-79
2022/05/01 09:48:20;;;;;;;9.50;7.30;;;13.70;1.00;;;;;;5075383;28;20528;-80
2022/05/01 09:50:48;;;;;;;7.80;6.63;;;13.90;1.00;;;;;;5091125;28;20446;-78
2022/05/01 09:53:15;;;;;;;8.60;5.37;;;13.90;1.00;;;;;;5070890;28;20505;-78
2022/05/01 09:55:42;;;;;;;10.70;6.87;;;14.00;1.00;;;;;;5071990;28;20432;-78
2022/05/01 09:58:11;;;;;;;10.70;5.93;;;14.20;1.00;;;;;;5091454;28;20515;-79
2022/05/01 10:00:40;;;;;;;6.13;4.80;;;14.40;1.00;;;;;;5086595;28;20443;-79
2022/05/01 10:03:29;;;;;;;7.82;5.90;;;14.70;1.00;;;;;;5080876;28;20448;-80
2022/05/01 10:05:57;;;;;;;6.17;5.13;;;14.60;1.00;;;;;;5073593;28;20187;-77
2022/05/01 10:08:24;;;;;;;8.17;5.90;;;14.80;1.00;;;;;;5084259;28;20796;-77
2022/05/01 10:10:56;;;;;;;9.10;6.30;;;14.50;1.00;;;;;;5070038;28;20448;-79
2022/05/01 10:13:25;;;;;;;8.20;5.10;;;14.30;1.00;;;;;;5082732;28;20471;-78
2022/05/01 10:15:52;;;;;;;8.43;6.00;;;14.30;1.00;;;;;;5072743;28;20455;-79
2022/05/01 10:18:20;;;;;;;9.00;5.93;;;14.60;1.00;;;;;;5085561;28;20448;-78
2022/05/01 10:20:48;;;;;;;8.20;5.43;;;14.70;1.00;;;;;;5074337;28;20448;-78
2022/05/01 10:23:16;;;;;;;7.67;5.73;;;14.60;1.00;;;;;;5068335;28;20454;-79
2022/05/01 10:25:49;;;;;;;11.43;6.53;;;14.90;99.90;;;;;;5080366;28;20441;-80
2022/05/01 10:28:32;;;;;;;8.37;6.30;;;14.80;99.90;;;;;;5080053;28;20462;-76
2022/05/01 10:34:18;;;;;;;9.30;5.70;;;15.10;99.90;;;;;;5070352;28;20549;-79
2022/05/01 10:37:00;;;;;;;9.27;5.23;;;15.10;99.90;;;;;;5089496;28;20760;-79
2022/05/01 10:39:33;;;;;;;6.97;5.40;;;15.10;99.90;;;;;;5066504;28;20445;-79
2022/05/01 10:42:01;;;;;;;5.90;4.40;;;15.20;99.90;;;;;;5088806;28;20447;-77
2022/05/01 10:44:30;;;;;;;6.70;5.07;;;15.10;99.90;;;;;;5081813;28;20448;-80
2022/05/01 10:47:05;;;;;;;8.40;5.80;;;15.20;99.90;;;;;;5081739;28;20828;-78
2022/05/01 10:49:37;;;;;;;6.20;4.13;;;15.40;99.90;;;;;;5080796;28;20432;-73
2022/05/01 10:52:19;;;;;;;5.33;4.83;;;15.50;99.90;;;;;;5057778;28;20478;-78
2022/05/01 10:54:56;;;;;;;7.17;5.70;;;15.40;99.90;;;;;;5053912;28;20863;-77
2022/05/01 10:57:25;;;;;;;7.53;4.40;;;15.50;99.90;;;;;;5075265;28;20457;-78
2022/05/01 11:00:04;;;;;;;7.30;5.13;;;15.50;99.90;;;;;;5072653;28;20478;-80
2022/05/01 11:02:35;;;;;;;5.87;3.87;;;15.70;99.90;;;;;;5073042;28;20225;-79
2022/05/01 11:05:03;;;;;;;7.07;5.67;;;15.60;99.90;;;;;;5055265;28;20439;-77
2022/05/01 11:07:34;;;;;;;6.60;5.03;;;15.80;99.90;;;;;;5062391;28;20533;-75
2022/05/01 11:10:01;;;;;;;6.30;4.83;;;15.50;99.90;;;;;;5064727;28;20447;-76
2022/05/01 11:12:32;;;;;;;5.43;4.33;;;15.50;99.90;;;;;;5085856;28;20977;-75
2022/05/01 11:15:00;;;;;;;7.33;4.50;;;15.60;99.90;;;;;;5079290;28;20528;-78
2022/05/01 11:17:55;;;;;;;6.17;4.90;;;15.80;99.90;;;;;;5070142;28;20534;-77
2022/05/01 11:20:31;;;;;;;6.70;5.50;;;15.70;99.90;;;;;;5085407;28;20443;-73
2022/05/01 11:23:14;;;;;;;8.10;5.40;;;15.60;99.90;;;;;;5074516;28;20446;-76
2022/05/01 11:25:42;;;;;;;6.57;5.20;;;15.70;99.90;;;;;;5071546;28;20534;-72
2022/05/01 11:28:09;;;;;;;6.80;4.70;;;15.90;99.90;;;;;;5089135;28;20543;-73
2022/05/01 11:30:38;;;;;;;8.43;5.30;;;15.70;99.90;;;;;;5077430;28;20923;-73
2022/05/01 11:33:08;;;;;;;5.70;5.00;;;15.80;99.90;;;;;;5073376;28;20905;-73
2022/05/01 11:36:04;;;;;;;5.60;4.17;;;15.70;99.90;;;;;;5067409;28;20446;-72
2022/05/01 11:38:53;;;;;;;5.20;4.20;;;15.90;99.90;;;;;;5072707;28;20523;-73
2022/05/01 11:41:42;;;;;;;5.90;4.43;;;16.10;99.90;;;;;;5085434;28;20522;-80
2022/05/01 11:44:22;;;;;;;6.10;5.30;;;16.20;99.90;;;;;;5070368;28;20450;-75
2022/05/01 11:46:51;;;;;;;6.77;5.03;;;16.40;99.90;;;;;;5069445;28;20919;-75
2022/05/01 11:49:18;;;;;;;11.30;7.80;;;16.40;99.90;;;;;;5086311;28;20441;-74
2022/05/01 11:51:45;;;;;;;8.40;4.97;;;16.30;99.90;;;;;;5090930;28;20930;-74
2022/05/01 11:54:15;;;;;;;6.93;5.10;;;16.30;99.90;;;;;;5079575;28;20473;-74
2022/05/01 12:02:28;;;;;;;5.20;3.57;;;16.50;99.90;;;;;;5077430;28;20569;-75
2022/05/01 12:04:59;;;;;;;6.10;4.33;;;16.00;99.90;;;;;;5061227;28;20547;-75
2022/05/01 12:07:26;;;;;;;6.17;4.77;;;16.20;99.90;;;;;;5083167;28;20444;-73
2022/05/01 12:09:55;;;;;;;5.97;4.80;;;16.50;99.90;;;;;;5090512;28;20497;-74
2022/05/01 12:12:27;;;;;;;7.97;4.97;;;16.40;99.90;;;;;;5090854;28;20490;-75
2022/05/01 12:14:54;;;;;;;6.00;4.43;;;16.50;99.90;;;;;;5081472;28;20188;-74
2022/05/01 12:17:22;;;;;;;4.80;4.20;;;16.60;99.90;;;;;;5068399;28;22184;-74
2022/05/01 12:19:50;;;;;;;4.90;3.60;;;16.50;99.90;;;;;;5060409;28;20460;-74
2022/05/01 12:22:19;;;;;;;7.90;5.00;;;16.60;99.90;;;;;;5069883;28;20528;-79
2022/05/01 12:24:48;;;;;;;5.00;4.53;;;16.30;99.90;;;;;;5077473;28;20445;-75
2022/05/01 12:27:19;;;;;;;7.20;5.07;;;16.50;99.90;;;;;;5068596;28;20797;-78
2022/05/01 12:29:49;;;;;;;6.37;4.83;;;16.10;99.90;;;;;;5077041;28;20452;-77
2022/05/01 12:32:17;;;;;;;7.97;5.40;;;16.00;99.90;;;;;;5091504;28;20528;-76
2022/05/01 12:34:56;;;;;;;7.43;4.90;;;;;;;;;;5086784;28;20475;-75
2022/05/01 12:37:26;;;;;;;5.10;4.60;;;;;;;;;;5065187;28;20445;-76
2022/05/01 12:39:58;;;;;;;4.93;4.33;;;;;;;;;;5089047;28;20428;-74
2022/05/01 12:45:12;;;;;;;5.37;4.53;;;;;;;;;;5068595;28;20415;-75
2022/05/01 12:47:40;;;;;;;6.47;5.00;;;;;;;;;;5079223;28;20447;-74
2022/05/01 12:50:08;;;;;;;11.10;7.70;;;;;;;;;;5073799;28;20446;-75
2022/05/01 12:52:37;;;;;;;7.30;4.93;;;;;;;;;;5071599;28;20494;-75
2022/05/01 12:55:08;;;;;;;9.10;6.00;;;;;;;;;;5066473;28;20997;-74
2022/05/01 12:57:40;;;;;;;6.37;5.30;;;;;;;;;;5074997;28;20459;-74
2022/05/01 13:00:08;;;;;;;6.80;4.67;;;;;;;;;;5041709;28;20430;-75
2022/05/01 13:02:35;;;;;;;8.27;5.30;;;;;;;;;;5035916;28;20463;-77
2022/05/01 13:05:03;;;;;;;7.40;4.70;;;;;;;;;;5041231;28;20525;-75
2022/05/01 13:07:31;;;;;;;6.43;4.27;;;;;;;;;;5049063;28;20457;-77
2022/05/01 13:09:58;;;;;;;6.90;4.87;;;;;;;;;;5042526;28;20447;-75
2022/05/01 13:12:30;;;;;;;6.47;4.20;;;;;;;;;;5033114;28;20521;-75
2022/05/01 13:15:01;;;;;;;5.40;4.57;;;;;;;;;;5043788;28;20442;-76
2022/05/01 13:17:29;;;;;;;6.57;3.70;;;;;;;;;;5024773;28;20443;-78
2022/05/01 13:19:57;;;;;;;6.07;4.40;;;;;;;;;;5048844;28;20529;-75
2022/05/01 13:22:24;;;;;;;6.20;4.87;;;;;;;;;;5038254;28;20472;-79
2022/05/01 13:24:53;;;;;;;5.63;3.77;;;;;;;;;;5027374;28;20893;-78
2022/05/01 13:27:21;;;;;;;5.10;3.77;;;;;;;;;;5022690;28;20466;-79
2022/05/01 13:29:48;;;;;;;4.30;3.60;;;;;;;;;;5024826;28;20530;-75
2022/05/01 13:32:18;;;;;;;5.53;4.10;;;;;;;;;;5024147;28;20889;-75
2022/05/01 13:34:46;;;;;;;6.20;4.00;;;;;;;;;;5034677;28;20479;-75
2022/05/01 13:37:13;;;;;;;4.43;3.60;;;;;;;;;;5045741;28;20495;-76
2022/05/01 13:45:13;;;;;;;5.10;3.67;;;;;;;;;;5023968;28;20449;-76
2022/05/01 13:47:42;;;;;;;4.33;3.70;;;;;;;;;;5045975;28;20439;-75
2022/05/01 13:50:09;;;;;;;5.60;4.10;;;;;;;;;;5037835;28;20451;-74
2022/05/01 13:52:37;;;;;;;4.50;3.53;;;;;;;;;;5047953;28;20437;-77
2022/05/01 13:55:04;;;;;;;4.60;3.63;;;;;;;;;;5035739;28;20438;-73
2022/05/01 13:57:33;;;;;;;5.97;4.37;;;;;;;;;;5045888;28;20517;-72
2022/05/01 14:00:00;;;;;;;4.90;3.50;;;;;;;;;;5074809;28;20520;-73
2022/05/01 14:02:27;;;;;;;3.77;3.30;;;;;;;;;;5082185;28;20518;-73
2022/05/01 14:04:56;;;;;;;8.03;4.70;;;;;;;;;;5081881;28;20470;-74
2022/05/01 14:07:23;;;;;;;6.67;3.93;;;;;;;;;;5067321;28;20448;-73
2022/05/01 14:09:50;;;;;;;4.70;3.80;;;;;;;;;;5083643;28;20507;-74
2022/05/01 14:12:17;;;;;;;3.90;3.17;;;;;;;;;;5080280;28;20553;-73
2022/05/01 14:14:45;;;;;;;3.97;3.57;;;;;;;;;;5066847;28;20527;-73
2022/05/01 14:17:14;;;;;;;4.47;3.83;;;;;;;;;;5064890;28;20807;-74
2022/05/01 14:19:41;;;;;;;4.23;3.50;;;;;;;;;;5067585;28;20470;-74
2022/05/01 14:22:10;;;;;;;5.07;4.30;;;;;;;;;;5078572;28;20550;-74
2022/05/01 14:24:38;;;;;;;5.10;4.40;;;;;;;;;;5063004;28;20473;-75
2022/05/01 14:27:06;;;;;;;7.93;4.47;;;;;;;;;;5088397;28;20623;-75
2022/05/01 14:29:33;;;;;;;4.33;3.50;;;;;;;;;;5075014;28;20469;-74
2022/05/01 14:32:02;;;;;;;5.90;4.47;;;;;;;;;;5087341;28;20437;-73
2022/05/01 14:34:34;;;;;;;6.60;4.70;;;;;;;;;;5080484;28;20478;-73
2022/05/01 14:37:01;;;;;;;5.53;4.67;;;;;;;;;;5087919;28;20429;-74
2022/05/01 14:39:30;;;;;;;5.50;4.13;;;;;;;;;;5055903;28;21086;-75
2022/05/01 14:42:00;;;;;;;6.83;5.07;;;;;;;;;;5068394;28;20474;-72
2022/05/01 14:44:31;;;;;;;5.53;4.97;;;;;;;;;;5065749;28;20446;-74
2022/05/01 14:46:59;;;;;;;5.37;4.33;;;;;;;;;;5080526;28;20524;-74
2022/05/01 14:49:45;;;;;;;6.63;5.03;;;;;;;;;;5084756;28;20482;-75
2022/05/01 14:52:12;;;;;;;7.03;5.05;;;;;;;;;;5056664;28;20454;-74
2022/05/01 14:54:42;;;;;;;5.30;4.80;;;;;;;;;;5076138;28;20302;-74
2022/05/01 14:57:13;;;;;;;5.40;3.97;;;;;;;;;;5064415;28;20446;-76